Time;durP1;ratioP1;P1;durP2;ratioP2;P2;SDS_P1;SDS_P2;PMS_P1;PMS_P2;Temp;Humidity;BMP_temperature;BMP_pressure;BME280_temperature;BME280_humidity;BME280_pressure;Samples;Min_cycle;Max_cycle;Signal;HPM_P1;HPM_P2
2022/04/01 00:01:37;;;;;;;5.78;3.50;;;2.30;85.50;;;;;;5084367;28;20514;-68
2022/04/01 00:04:02;;;;;;;5.32;3.33;;;2.30;85.50;;;;;;5088511;28;20099;-69
2022/04/01 00:06:28;;;;;;;5.55;3.90;;;2.20;85.50;;;;;;5082965;28;20386;-69
2022/04/01 00:08:53;;;;;;;5.03;3.60;;;2.30;85.50;;;;;;5082844;28;20031;-68
2022/04/01 00:11:19;;;;;;;4.53;3.55;;;2.30;85.50;;;;;;5099072;28;20029;-68
2022/04/01 00:13:45;;;;;;;4.63;3.30;;;2.20;85.40;;;;;;5082291;28;20017;-70
2022/04/01 00:16:10;;;;;;;3.88;3.47;;;2.20;85.50;;;;;;5074848;28;20028;-69
2022/04/01 00:18:36;;;;;;;5.22;3.28;;;2.30;85.40;;;;;;5077436;28;20368;-70
2022/04/01 00:21:02;;;;;;;5.95;3.83;;;2.20;85.30;;;;;;5091029;28;20046;-69
2022/04/01 00:23:27;;;;;;;5.22;3.45;;;2.20;85.40;;;;;;5086641;28;20533;-70
2022/04/01 00:25:53;;;;;;;4.50;3.70;;;2.20;85.40;;;;;;5078736;28;20036;-70
2022/04/01 00:28:19;;;;;;;4.43;3.55;;;2.10;85.50;;;;;;5085693;28;20024;-70
2022/04/01 00:30:44;;;;;;;5.82;3.50;;;2.10;85.70;;;;;;5082419;28;20375;-70
2022/04/01 00:33:10;;;;;;;5.28;4.00;;;2.20;85.80;;;;;;5085730;28;20060;-70
2022/04/01 00:35:36;;;;;;;6.55;3.97;;;2.10;85.50;;;;;;5084666;28;20039;-70
2022/04/01 00:38:02;;;;;;;4.57;3.70;;;2.10;85.60;;;;;;5081156;28;20455;-69
2022/04/01 00:40:27;;;;;;;4.78;3.83;;;2.10;85.70;;;;;;5089592;28;20095;-70
2022/04/01 00:42:53;;;;;;;5.03;3.50;;;2.10;85.80;;;;;;5086654;28;20048;-70
2022/04/01 00:45:19;;;;;;;4.10;3.70;;;2.10;86.30;;;;;;5083239;28;20107;-70
2022/04/01 00:47:44;;;;;;;4.15;3.60;;;2.10;85.70;;;;;;5089544;28;20035;-69
2022/04/01 00:50:10;;;;;;;4.00;3.53;;;2.10;85.70;;;;;;5086817;28;20035;-69
2022/04/01 00:52:37;;;;;;;5.65;4.75;;;2.00;85.60;;;;;;5088963;28;20028;-69
2022/04/01 00:55:08;;;;;;;5.78;4.40;;;2.00;85.70;;;;;;5088301;28;20444;-70
2022/04/01 00:57:35;;;;;;;4.63;3.97;;;2.00;85.80;;;;;;5078866;28;20027;-70
2022/04/01 01:00:00;;;;;;;5.68;4.00;;;2.00;85.80;;;;;;5085561;28;20060;-70
2022/04/01 01:02:26;;;;;;;4.82;4.32;;;1.90;86.00;;;;;;5084894;28;20059;-70
2022/04/01 01:04:52;;;;;;;4.50;3.63;;;2.00;86.10;;;;;;5084495;28;20024;-70
2022/04/01 01:07:18;;;;;;;5.30;4.45;;;2.00;86.10;;;;;;5090076;28;20538;-70
2022/04/01 01:09:44;;;;;;;5.82;4.43;;;2.00;86.10;;;;;;5083723;28;20035;-71
2022/04/01 01:12:11;;;;;;;4.82;4.10;;;2.00;86.00;;;;;;5087300;28;20032;-71
2022/04/01 01:14:38;;;;;;;7.00;4.60;;;2.00;86.00;;;;;;5079246;28;20132;-69
2022/04/01 01:17:07;;;;;;;5.47;4.50;;;1.90;86.10;;;;;;5076022;28;20103;-71
2022/04/01 01:19:33;;;;;;;6.93;5.13;;;1.90;86.30;;;;;;5079930;28;20031;-70
2022/04/01 01:21:59;;;;;;;5.80;5.00;;;1.90;86.40;;;;;;5090525;28;20432;-71
2022/04/01 01:24:26;;;;;;;5.15;4.30;;;1.80;86.50;;;;;;5080701;28;20055;-70
2022/04/01 01:26:53;;;;;;;4.85;4.30;;;1.80;86.60;;;;;;5085369;28;20025;-69
2022/04/01 01:29:28;;;;;;;5.20;4.70;;;1.80;86.70;;;;;;5077458;28;20043;-68
2022/04/01 01:31:56;;;;;;;5.28;4.50;;;1.80;86.70;;;;;;5085651;28;20028;-68
2022/04/01 01:34:22;;;;;;;4.90;4.38;;;1.80;86.80;;;;;;5085637;28;20013;-69
2022/04/01 01:36:50;;;;;;;5.05;4.38;;;1.80;86.80;;;;;;5072158;28;20028;-70
2022/04/01 01:39:15;;;;;;;4.93;4.43;;;1.70;86.70;;;;;;5073404;28;20085;-69
2022/04/01 01:41:42;;;;;;;4.65;4.13;;;1.70;86.90;;;;;;5083168;28;20028;-71
2022/04/01 01:44:08;;;;;;;4.80;4.10;;;1.80;86.90;;;;;;5081296;28;20103;-69
2022/04/01 01:46:34;;;;;;;5.28;3.97;;;1.80;86.80;;;;;;5083954;28;20099;-70
2022/04/01 01:49:01;;;;;;;4.40;3.97;;;1.80;86.80;;;;;;5075737;28;20016;-70
2022/04/01 01:56:54;;;;;;;5.03;4.25;;;1.80;86.60;;;;;;5085683;28;20062;-70
2022/04/01 01:59:20;;;;;;;4.28;3.67;;;1.70;86.60;;;;;;5087968;28;20627;-72
2022/04/01 02:01:45;;;;;;;6.03;4.10;;;1.80;86.70;;;;;;5084099;28;20034;-70
2022/04/01 02:04:11;;;;;;;4.40;3.40;;;1.70;86.60;;;;;;5089426;28;20046;-71
2022/04/01 02:06:38;;;;;;;4.53;4.10;;;1.70;86.70;;;;;;5086799;28;20073;-71
2022/04/01 02:09:04;;;;;;;5.35;3.83;;;1.70;86.70;;;;;;5086576;28;20043;-71
2022/04/01 02:11:30;;;;;;;3.50;3.20;;;1.60;86.80;;;;;;5081010;28;20108;-70
2022/04/01 02:13:56;;;;;;;4.15;3.47;;;1.70;87.00;;;;;;5082777;28;20111;-70
2022/04/01 02:16:21;;;;;;;4.40;3.67;;;1.70;86.90;;;;;;5082516;28;20456;-70
2022/04/01 02:18:49;;;;;;;3.33;3.03;;;1.70;86.90;;;;;;5079608;28;20024;-70
2022/04/01 02:21:15;;;;;;;4.72;3.53;;;1.70;86.90;;;;;;5098431;28;20107;-73
2022/04/01 02:23:45;;;;;;;4.40;3.78;;;1.80;86.70;;;;;;5090207;28;20588;-70
2022/04/01 02:26:12;;;;;;;3.85;3.25;;;1.70;86.50;;;;;;5084166;28;20024;-70
2022/04/01 02:28:40;;;;;;;4.93;3.63;;;1.70;86.50;;;;;;5083560;28;20028;-71
2022/04/01 02:31:06;;;;;;;5.03;4.00;;;1.80;86.60;;;;;;5078872;28;20031;-71
2022/04/01 02:33:32;;;;;;;3.47;3.17;;;1.80;86.40;;;;;;5087448;28;20020;-70
2022/04/01 02:35:59;;;;;;;3.85;3.50;;;1.70;86.30;;;;;;5078336;28;20105;-70
2022/04/01 02:38:25;;;;;;;4.78;3.75;;;1.80;86.40;;;;;;5080016;28;20386;-70
2022/04/01 02:40:53;;;;;;;4.20;3.80;;;1.80;86.30;;;;;;5087167;28;20027;-71
2022/04/01 02:43:19;;;;;;;3.97;3.53;;;1.70;86.20;;;;;;5084047;28;20591;-71
2022/04/01 02:45:45;;;;;;;4.60;3.90;;;1.80;86.30;;;;;;5101557;28;20043;-71
2022/04/01 02:48:11;;;;;;;4.70;4.20;;;1.80;86.00;;;;;;5084524;28;20035;-71
2022/04/01 02:50:37;;;;;;;4.95;4.45;;;1.80;85.80;;;;;;5085611;28;20028;-71
2022/04/01 02:53:02;;;;;;;4.60;4.10;;;1.70;85.80;;;;;;5088621;28;20072;-72
2022/04/01 02:55:28;;;;;;;5.03;4.30;;;1.70;86.10;;;;;;5083995;28;20028;-70
2022/04/01 02:57:53;;;;;;;4.57;3.88;;;1.70;86.10;;;;;;5079709;28;20020;-71
2022/04/01 03:00:21;;;;;;;5.05;4.25;;;1.70;86.00;;;;;;5081530;28;20032;-71
2022/04/01 03:02:47;;;;;;;4.93;4.43;;;1.70;86.00;;;;;;5084840;28;20028;-69
2022/04/01 03:05:13;;;;;;;5.20;4.68;;;1.70;85.90;;;;;;5086989;28;20032;-69
2022/04/01 03:07:39;;;;;;;6.10;5.45;;;1.70;85.80;;;;;;5084718;28;20024;-72
2022/04/01 03:10:05;;;;;;;5.88;4.47;;;1.70;85.80;;;;;;5081791;28;20032;-70
2022/04/01 03:12:31;;;;;;;4.80;4.30;;;1.70;85.90;;;;;;5079603;28;20585;-71
2022/04/01 03:14:56;;;;;;;5.07;4.30;;;1.70;85.80;;;;;;5084723;28;20020;-70
2022/04/01 03:17:22;;;;;;;4.97;4.45;;;1.70;85.90;;;;;;5077707;28;20025;-69
2022/04/01 03:19:47;;;;;;;4.80;4.20;;;1.70;85.90;;;;;;5078658;28;20029;-69
2022/04/01 03:22:13;;;;;;;5.03;3.80;;;1.70;85.80;;;;;;5076538;28;20490;-69
2022/04/01 03:24:39;;;;;;;5.30;4.40;;;1.70;85.80;;;;;;5081557;28;20055;-71
2022/04/01 03:27:04;;;;;;;4.30;3.90;;;1.60;85.80;;;;;;5081524;28;20017;-70
2022/04/01 03:29:32;;;;;;;4.95;4.45;;;1.60;85.80;;;;;;5085674;28;20561;-70
2022/04/01 03:31:57;;;;;;;4.57;4.00;;;1.70;85.80;;;;;;5084008;28;20032;-70
2022/04/01 03:34:23;;;;;;;5.60;4.63;;;1.60;85.70;;;;;;5081216;28;20599;-70
2022/04/01 03:36:49;;;;;;;5.28;4.45;;;1.60;85.80;;;;;;5083020;28;20089;-70
2022/04/01 03:39:16;;;;;;;5.10;4.60;;;1.60;85.70;;;;;;5086385;28;20024;-71
2022/04/01 03:41:42;;;;;;;5.03;4.50;;;1.50;86.00;;;;;;5091132;28;20088;-72
2022/04/01 03:44:09;;;;;;;6.30;4.82;;;1.50;86.00;;;;;;5090151;28;20869;-70
2022/04/01 03:46:50;;;;;;;6.60;5.07;;;1.50;86.00;;;;;;5091749;28;20024;-70
2022/04/01 03:49:24;;;;;;;7.03;4.53;;;1.50;86.10;;;;;;5090234;28;20043;-70
2022/04/01 03:51:50;;;;;;;6.95;5.10;;;1.50;86.20;;;;;;5087030;28;20016;-71
2022/04/01 03:54:17;;;;;;;5.82;4.50;;;1.40;86.30;;;;;;5088334;28;20044;-71
2022/04/01 03:56:48;;;;;;;5.68;4.35;;;1.40;86.50;;;;;;5090796;28;20020;-70
2022/04/01 03:59:17;;;;;;;5.07;4.27;;;1.40;86.50;;;;;;5089438;28;20020;-70
2022/04/01 04:01:43;;;;;;;5.13;4.13;;;1.40;86.50;;;;;;5087176;28;20028;-69
2022/04/01 04:04:09;;;;;;;5.35;4.45;;;1.40;86.50;;;;;;5090345;28;20083;-69
2022/04/01 04:06:38;;;;;;;4.03;3.50;;;1.40;86.50;;;;;;5084087;28;20032;-69
2022/04/01 04:09:04;;;;;;;4.40;3.83;;;1.40;86.50;;;;;;5090229;28;20478;-70
2022/04/01 04:11:31;;;;;;;6.00;3.92;;;1.50;86.30;;;;;;5089074;28;20506;-69
2022/04/01 04:13:59;;;;;;;4.82;4.07;;;1.40;86.80;;;;;;5090415;28;20099;-69
2022/04/01 04:16:29;;;;;;;3.97;3.58;;;1.40;86.10;;;;;;5087208;28;20165;-69
2022/04/01 04:19:16;;;;;;;5.72;4.30;;;1.40;86.00;;;;;;5086213;28;20028;-69
2022/04/01 04:22:14;;;;;;;4.38;3.97;;;1.50;85.90;;;;;;5080244;28;20076;-70
2022/04/01 04:24:48;;;;;;;4.70;4.22;;;1.40;85.80;;;;;;5080381;28;20024;-70
2022/04/01 04:27:17;;;;;;;5.40;4.28;;;1.40;85.70;;;;;;5083258;28;20453;-70
2022/04/01 04:29:50;;;;;;;7.28;4.40;;;1.40;85.80;;;;;;5082318;28;20355;-70
2022/04/01 04:32:23;;;;;;;4.20;3.60;;;1.40;85.80;;;;;;5083303;28;20028;-69
2022/04/01 04:34:50;;;;;;;4.22;3.47;;;1.40;85.80;;;;;;5087265;28;20742;-70
2022/04/01 04:37:26;;;;;;;6.32;4.25;;;1.40;85.60;;;;;;5079565;28;20482;-69
2022/04/01 04:39:52;;;;;;;5.57;4.32;;;1.40;85.50;;;;;;5096021;28;20028;-70
2022/04/01 04:42:18;;;;;;;5.22;4.05;;;1.40;85.40;;;;;;5087028;28;20103;-69
2022/04/01 04:44:48;;;;;;;4.55;3.75;;;1.40;85.30;;;;;;5087219;28;20106;-70
2022/04/01 04:47:15;;;;;;;5.07;3.90;;;1.40;85.10;;;;;;5080204;28;20053;-70
2022/04/01 04:49:42;;;;;;;5.03;3.92;;;1.40;85.00;;;;;;5078501;28;20039;-70
2022/04/01 04:52:09;;;;;;;6.53;3.85;;;1.40;84.90;;;;;;5086948;28;20035;-70
2022/04/01 04:54:39;;;;;;;5.68;4.22;;;1.40;85.00;;;;;;5088132;28;20031;-69
2022/04/01 04:57:06;;;;;;;4.25;3.40;;;1.40;84.80;;;;;;5081741;28;20085;-69
2022/04/01 04:59:38;;;;;;;4.95;3.80;;;1.30;84.90;;;;;;5090261;28;20524;-69
2022/04/01 05:02:16;;;;;;;5.77;3.90;;;1.40;84.80;;;;;;5081858;28;20024;-69
2022/04/01 05:05:04;;;;;;;5.05;3.65;;;1.40;84.60;;;;;;5084872;28;20285;-69
2022/04/01 05:07:35;;;;;;;5.32;4.38;;;1.40;84.40;;;;;;5083810;28;20407;-70
2022/04/01 05:10:18;;;;;;;3.95;3.40;;;1.40;84.20;;;;;;5084159;28;20368;-70
2022/04/01 05:13:15;;;;;;;5.40;3.53;;;1.40;84.10;;;;;;5086877;28;20028;-70
2022/04/01 05:15:41;;;;;;;6.78;3.60;;;1.40;84.00;;;;;;5082326;28;20024;-69
2022/04/01 05:18:29;;;;;;;5.03;3.90;;;1.40;84.00;;;;;;5083756;28;20024;-70
2022/04/01 05:20:59;;;;;;;4.75;3.42;;;1.30;84.00;;;;;;5084960;28;20401;-70
2022/04/01 05:23:46;;;;;;;4.72;4.03;;;1.40;84.10;;;;;;5084144;28;20207;-68
2022/04/01 05:26:14;;;;;;;5.70;3.70;;;1.40;84.00;;;;;;5079188;28;20024;-69
2022/04/01 05:28:46;;;;;;;5.20;3.83;;;1.40;84.00;;;;;;5078815;28;20035;-71
2022/04/01 05:31:36;;;;;;;6.53;4.23;;;1.40;83.90;;;;;;5085811;28;20505;-72
2022/04/01 05:34:36;;;;;;;5.72;3.60;;;1.30;83.70;;;;;;5083368;28;20058;-69
2022/04/01 05:37:02;;;;;;;4.63;3.33;;;1.40;83.90;;;;;;5080948;28;20052;-68
2022/04/01 05:39:29;;;;;;;5.32;3.83;;;1.40;83.80;;;;;;5078137;28;20394;-70
2022/04/01 05:41:55;;;;;;;4.75;3.22;;;1.40;83.70;;;;;;5076699;28;20070;-70
2022/04/01 05:44:22;;;;;;;4.82;3.30;;;1.40;83.70;;;;;;5082323;28;20547;-69
2022/04/01 05:46:51;;;;;;;3.40;3.10;;;1.40;83.60;;;;;;5082702;28;20066;-70
2022/04/01 05:49:18;;;;;;;5.32;3.47;;;1.40;83.60;;;;;;5082195;28;20016;-69
2022/04/01 05:51:46;;;;;;;4.43;3.53;;;1.40;83.60;;;;;;5086498;28;20027;-69
2022/04/01 05:54:14;;;;;;;4.30;3.40;;;1.40;83.60;;;;;;5086105;28;20020;-69
2022/04/01 05:56:44;;;;;;;4.93;3.35;;;1.50;83.60;;;;;;5084305;28;20020;-70
2022/04/01 05:59:12;;;;;;;4.90;3.05;;;1.50;83.60;;;;;;5087512;28;20099;-70
2022/04/01 06:02:00;;;;;;;5.10;3.35;;;1.50;83.60;;;;;;5088674;28;20017;-70
2022/04/01 06:05:18;;;;;;;4.53;3.20;;;1.50;83.60;;;;;;5052824;28;20036;-70
2022/04/01 06:07:46;;;;;;;3.30;2.95;;;1.50;83.60;;;;;;5015646;28;20500;-70
2022/04/01 06:10:23;;;;;;;4.65;3.00;;;1.50;83.60;;;;;;5071467;28;20513;-69
2022/04/01 06:13:24;;;;;;;5.63;3.42;;;1.60;83.60;;;;;;5085827;28;20031;-69
2022/04/01 06:16:16;;;;;;;5.50;3.20;;;1.50;83.60;;;;;;5060074;28;20040;-69
2022/04/01 06:18:56;;;;;;;4.97;3.33;;;1.60;83.50;;;;;;5079362;28;20407;-67
2022/04/01 06:21:24;;;;;;;4.65;3.08;;;1.60;83.40;;;;;;5085210;28;20092;-68
2022/04/01 06:24:09;;;;;;;5.32;3.28;;;1.60;83.30;;;;;;5079751;28;20035;-67
2022/04/01 06:26:40;;;;;;;5.20;3.28;;;1.70;83.20;;;;;;5084023;28;20020;-68
2022/04/01 06:29:24;;;;;;;6.80;4.30;;;1.70;83.10;;;;;;5078218;28;20032;-69
2022/04/01 06:31:57;;;;;;;5.85;3.20;;;1.70;83.00;;;;;;5080599;28;20032;-68
2022/04/01 06:34:33;;;;;;;5.43;3.50;;;1.70;82.90;;;;;;5087664;28;20020;-68
2022/04/01 06:37:03;;;;;;;5.00;3.20;;;1.70;82.80;;;;;;5088752;28;20686;-68
2022/04/01 06:39:45;;;;;;;3.50;3.17;;;1.80;82.90;;;;;;5098396;28;20030;-68
2022/04/01 06:42:20;;;;;;;3.83;3.30;;;1.70;82.90;;;;;;5093449;27;20132;-68
2022/04/01 06:44:47;;;;;;;5.32;3.30;;;1.80;82.90;;;;;;5075927;28;20052;-69
2022/04/01 06:47:12;;;;;;;4.50;3.60;;;1.80;82.90;;;;;;5073066;28;20078;-68
2022/04/01 06:49:38;;;;;;;5.45;3.28;;;1.80;82.80;;;;;;5078552;28;20032;-68
2022/04/01 06:52:04;;;;;;;3.75;3.13;;;1.80;82.80;;;;;;5084117;28;20032;-69
2022/04/01 06:54:30;;;;;;;3.90;3.30;;;1.80;82.90;;;;;;5076259;28;20017;-67
2022/04/01 06:56:55;;;;;;;4.60;3.22;;;1.90;82.90;;;;;;5075175;28;20073;-68
2022/04/01 06:59:21;;;;;;;4.53;3.60;;;1.90;82.90;;;;;;5081278;28;20108;-68
2022/04/01 07:01:46;;;;;;;4.25;3.03;;;1.80;83.60;;;;;;5084424;28;20036;-68
2022/04/01 07:04:14;;;;;;;5.53;3.53;;;1.90;83.10;;;;;;5081584;28;20052;-68
2022/04/01 07:06:40;;;;;;;5.47;3.03;;;1.90;83.00;;;;;;5086661;28;20031;-66
2022/04/01 07:09:05;;;;;;;4.85;3.42;;;1.90;83.10;;;;;;5082858;28;20028;-70
2022/04/01 07:11:31;;;;;;;4.45;3.05;;;1.90;83.00;;;;;;5085639;28;20091;-69
2022/04/01 07:13:56;;;;;;;3.75;2.78;;;2.00;83.00;;;;;;5086229;28;20020;-68
2022/04/01 07:16:22;;;;;;;4.80;3.40;;;2.00;82.80;;;;;;5091793;28;20036;-70
2022/04/01 07:18:47;;;;;;;4.15;3.00;;;2.00;82.70;;;;;;5094227;28;20028;-70
2022/04/01 07:21:13;;;;;;;3.75;3.30;;;2.00;82.80;;;;;;5103645;28;20043;-69
2022/04/01 07:23:39;;;;;;;3.60;3.00;;;2.00;82.90;;;;;;5085740;28;20124;-68
2022/04/01 07:26:04;;;;;;;4.70;3.55;;;2.00;82.80;;;;;;5085525;28;20482;-68
2022/04/01 07:28:30;;;;;;;5.45;3.50;;;2.10;82.80;;;;;;5081643;28;20643;-70
2022/04/01 07:30:56;;;;;;;4.88;3.22;;;2.10;82.70;;;;;;5089096;28;20115;-71
2022/04/01 07:33:22;;;;;;;5.45;2.90;;;2.10;82.70;;;;;;5090352;28;20107;-71
2022/04/01 07:35:48;;;;;;;3.90;3.15;;;2.20;82.60;;;;;;5087656;28;20020;-69
2022/04/01 07:38:14;;;;;;;5.63;3.10;;;2.20;82.40;;;;;;5076293;28;20079;-69
2022/04/01 07:40:40;;;;;;;2.88;2.40;;;2.20;82.10;;;;;;5088295;28;20386;-69
2022/04/01 07:43:06;;;;;;;3.92;3.00;;;2.30;82.20;;;;;;5098838;28;20028;-69
2022/04/01 07:45:34;;;;;;;3.83;2.72;;;2.30;82.00;;;;;;5080737;28;20020;-67
2022/04/01 07:48:00;;;;;;;4.35;2.92;;;2.40;82.00;;;;;;5080247;28;20029;-68
2022/04/01 07:50:27;;;;;;;3.67;2.80;;;2.50;82.00;;;;;;5082662;28;20512;-70
2022/04/01 07:52:52;;;;;;;3.38;2.72;;;2.60;81.80;;;;;;5079891;28;20024;-70
2022/04/01 07:55:19;;;;;;;3.65;2.55;;;2.60;81.40;;;;;;5088091;28;20427;-71
2022/04/01 07:57:47;;;;;;;5.78;2.90;;;2.70;81.40;;;;;;5085953;28;20016;-68
2022/04/01 08:00:15;;;;;;;4.57;2.75;;;2.70;81.00;;;;;;5089772;28;20107;-68
2022/04/01 08:02:41;;;;;;;3.80;2.45;;;2.80;80.60;;;;;;5093966;28;20098;-69
2022/04/01 08:05:07;;;;;;;4.40;2.60;;;2.90;80.30;;;;;;5086300;28;20170;-69
2022/04/01 08:07:33;;;;;;;3.13;2.22;;;2.90;79.70;;;;;;5085446;28;20543;-72
2022/04/01 08:09:58;;;;;;;2.80;2.35;;;3.10;79.50;;;;;;5089724;28;20016;-69
2022/04/01 08:12:24;;;;;;;2.95;1.98;;;3.20;79.10;;;;;;5087097;28;20040;-70
2022/04/01 08:14:50;;;;;;;4.55;2.15;;;3.20;78.30;;;;;;5091677;28;20027;-68
2022/04/01 08:17:16;;;;;;;3.88;2.33;;;3.10;77.80;;;;;;5085922;28;20028;-69
2022/04/01 08:19:42;;;;;;;3.35;2.45;;;3.10;77.30;;;;;;5079667;28;20017;-69
2022/04/01 08:22:09;;;;;;;3.38;2.05;;;3.10;77.30;;;;;;5088221;28;20024;-69
2022/04/01 08:24:35;;;;;;;2.33;1.95;;;3.00;76.40;;;;;;5086811;28;20025;-69
2022/04/01 08:27:01;;;;;;;2.20;1.80;;;3.00;76.70;;;;;;5084393;28;20040;-67
2022/04/01 08:29:29;;;;;;;1.73;1.63;;;3.00;76.20;;;;;;5079781;28;20035;-67
2022/04/01 08:31:55;;;;;;;2.38;1.98;;;3.10;76.20;;;;;;5079081;28;20030;-68
2022/04/01 08:34:21;;;;;;;1.95;1.75;;;3.20;76.10;;;;;;5077929;28;20025;-69
2022/04/01 08:36:46;;;;;;;3.00;1.77;;;3.30;76.00;;;;;;5082567;28;20517;-69
2022/04/01 08:39:12;;;;;;;3.13;1.90;;;3.40;75.30;;;;;;5080220;28;20020;-68
2022/04/01 08:41:38;;;;;;;2.30;1.60;;;3.50;75.00;;;;;;5078112;28;20052;-68
2022/04/01 08:44:04;;;;;;;2.13;1.98;;;3.60;74.70;;;;;;5078218;28;20024;-69
2022/04/01 08:46:30;;;;;;;2.35;1.70;;;3.60;74.20;;;;;;5079701;28;20036;-68
2022/04/01 08:48:56;;;;;;;2.90;1.70;;;3.70;73.40;;;;;;5077296;28;20115;-69
2022/04/01 08:51:22;;;;;;;1.75;1.55;;;3.80;73.10;;;;;;5080867;28;20430;-68
2022/04/01 08:53:48;;;;;;;2.47;1.80;;;3.90;72.50;;;;;;5078523;28;20035;-68
2022/04/01 08:56:17;;;;;;;2.10;1.63;;;3.90;72.10;;;;;;5078584;28;20028;-69
2022/04/01 08:58:43;;;;;;;1.70;1.60;;;3.90;72.40;;;;;;5086334;28;20024;-68
2022/04/01 09:01:09;;;;;;;1.83;1.48;;;4.00;71.70;;;;;;5083949;28;20454;-68
2022/04/01 09:03:35;;;;;;;1.88;1.60;;;4.10;71.60;;;;;;5081128;28;20422;-68
2022/04/01 09:06:04;;;;;;;2.67;1.92;;;4.30;71.70;;;;;;5078372;28;20044;-69
2022/04/01 09:08:38;;;;;;;2.70;2.10;;;4.40;71.00;;;;;;5081613;28;20445;-69
2022/04/01 09:11:15;;;;;;;2.90;1.98;;;4.50;70.40;;;;;;5083598;28;20020;-69
2022/04/01 09:13:43;;;;;;;3.45;2.53;;;4.60;70.00;;;;;;5080456;28;20107;-69
2022/04/01 09:16:47;;;;;;;2.15;1.95;;;4.70;70.00;;;;;;5080731;28;20086;-69
2022/04/01 09:19:14;;;;;;;2.70;2.00;;;4.70;70.00;;;;;;5079831;28;20032;-69
2022/04/01 09:21:42;;;;;;;3.35;2.15;;;4.70;69.60;;;;;;5087728;28;20020;-69
2022/04/01 09:24:10;;;;;;;4.68;2.30;;;4.60;69.50;;;;;;5091904;28;20024;-69
2022/04/01 09:26:38;;;;;;;5.13;2.33;;;4.50;68.90;;;;;;5090575;28;20090;-70
2022/04/01 09:29:09;;;;;;;5.15;2.50;;;4.50;69.50;;;;;;5084098;28;20494;-69
2022/04/01 09:31:37;;;;;;;4.03;2.50;;;4.50;69.60;;;;;;5087324;28;20037;-69
2022/04/01 09:34:09;;;;;;;2.83;2.22;;;4.70;69.60;;;;;;5083906;28;20202;-69
2022/04/01 09:36:38;;;;;;;;;;;4.60;69.60;;;;;;5087188;28;20023;-69
2022/04/01 09:39:08;;;;;;;3.25;2.40;;;4.70;70.00;;;;;;5088071;28;20006;-69
2022/04/01 09:41:36;;;;;;;3.75;2.25;;;4.80;70.00;;;;;;5081900;28;20706;-70
2022/04/01 09:44:10;;;;;;;3.33;2.50;;;4.90;70.10;;;;;;5084943;28;20506;-69
2022/04/01 09:46:42;;;;;;;3.78;2.40;;;4.80;69.80;;;;;;5084229;28;20403;-69
2022/04/01 09:49:08;;;;;;;4.00;2.57;;;4.70;70.00;;;;;;5090684;28;20031;-69
2022/04/01 09:51:34;;;;;;;3.35;2.35;;;4.60;70.00;;;;;;5086701;28;20035;-68
2022/04/01 09:54:03;;;;;;;3.45;2.45;;;4.50;70.30;;;;;;5079939;28;20332;-69
2022/04/01 09:56:43;;;;;;;5.65;2.83;;;4.50;70.70;;;;;;5081143;28;20021;-70
2022/04/01 09:59:11;;;;;;;3.22;2.53;;;4.50;70.20;;;;;;5082483;28;20026;-69
2022/04/01 10:01:39;;;;;;;3.33;2.63;;;4.60;70.10;;;;;;5080096;28;20119;-70
2022/04/01 10:04:05;;;;;;;4.97;2.63;;;4.70;70.80;;;;;;5085407;28;20032;-71
2022/04/01 10:06:32;;;;;;;3.85;2.70;;;4.80;70.20;;;;;;5082256;28;20031;-71
2022/04/01 10:09:08;;;;;;;4.07;2.80;;;4.90;70.20;;;;;;5078356;28;20044;-70
2022/04/01 10:11:36;;;;;;;6.93;3.83;;;4.90;70.10;;;;;;5084889;28;20494;-70
2022/04/01 10:14:11;;;;;;;5.10;3.47;;;4.80;69.20;;;;;;5076552;28;20046;-69
2022/04/01 10:16:41;;;;;;;6.30;3.30;;;4.80;69.70;;;;;;5078629;28;20044;-71
2022/04/01 10:19:11;;;;;;;6.45;4.00;;;4.70;69.40;;;;;;5083979;28;20038;-70
2022/04/01 10:21:40;;;;;;;5.30;3.35;;;4.60;68.70;;;;;;5101856;28;20011;-70
2022/04/01 10:24:41;;;;;;;3.95;3.05;;;4.50;68.90;;;;;;5083055;28;20088;-70
2022/04/01 10:27:14;;;;;;;5.53;3.83;;;4.70;69.20;;;;;;5060674;28;20374;-70
2022/04/01 10:29:42;;;;;;;4.85;3.40;;;4.70;68.70;;;;;;5090682;28;20032;-70
2022/04/01 10:32:30;;;;;;;5.05;3.35;;;4.70;68.60;;;;;;5084257;28;20028;-70
2022/04/01 10:34:58;;;;;;;4.13;3.42;;;4.70;68.70;;;;;;5087829;28;20388;-70
2022/04/01 10:37:25;;;;;;;5.03;3.75;;;4.60;68.70;;;;;;5085400;28;20484;-70
2022/04/01 10:39:51;;;;;;;5.50;3.90;;;4.70;69.00;;;;;;5089572;28;20020;-70
2022/04/01 10:42:17;;;;;;;6.53;3.80;;;4.60;68.90;;;;;;5089327;28;20038;-70
2022/04/01 10:44:49;;;;;;;4.53;3.38;;;4.60;69.20;;;;;;5089618;28;20085;-70
2022/04/01 10:47:14;;;;;;;8.20;3.97;;;4.50;68.90;;;;;;5082393;28;20647;-69
2022/04/01 10:52:24;;;;;;;4.65;3.60;;;4.40;68.70;;;;;;5083867;28;20106;-70
2022/04/01 10:55:10;;;;;;;4.72;3.60;;;4.50;69.10;;;;;;5087891;28;20498;-69
2022/04/01 10:57:44;;;;;;;4.07;3.60;;;4.40;69.00;;;;;;5079090;28;20039;-70
2022/04/01 11:00:14;;;;;;;5.75;4.25;;;4.50;68.80;;;;;;5085986;28;20485;-69
2022/04/01 11:02:40;;;;;;;5.15;3.80;;;4.60;68.70;;;;;;5085081;28;20048;-69
2022/04/01 11:05:29;;;;;;;5.13;3.70;;;4.70;68.60;;;;;;5091995;28;20032;-70
2022/04/01 11:08:19;;;;;;;6.97;4.00;;;4.80;68.00;;;;;;5093689;28;20088;-69
2022/04/01 11:11:12;;;;;;;5.40;3.65;;;4.80;67.80;;;;;;5086550;28;20028;-69
2022/04/01 11:13:38;;;;;;;6.22;3.70;;;4.90;67.70;;;;;;5085111;28;20079;-70
2022/04/01 11:16:21;;;;;;;5.05;3.78;;;5.00;67.40;;;;;;5083763;28;20103;-70
2022/04/01 11:19:19;;;;;;;5.70;4.03;;;5.00;67.20;;;;;;5081223;28;20024;-70
2022/04/01 11:21:46;;;;;;;5.40;3.58;;;5.00;66.70;;;;;;5084194;28;20059;-70
2022/04/01 11:24:28;;;;;;;4.63;3.47;;;4.90;66.60;;;;;;5080554;28;20111;-69
2022/04/01 11:26:53;;;;;;;5.38;4.00;;;4.80;67.00;;;;;;5080083;28;21206;-70
2022/04/01 11:29:23;;;;;;;5.22;4.03;;;4.70;67.90;;;;;;5076008;28;20056;-70
2022/04/01 11:31:49;;;;;;;6.28;3.85;;;4.80;67.90;;;;;;5080449;28;20024;-70
2022/04/01 11:34:15;;;;;;;5.82;4.32;;;4.70;68.00;;;;;;5077972;28;20021;-71
2022/04/01 11:36:42;;;;;;;6.05;4.03;;;4.70;68.10;;;;;;5079598;28;20028;-69
2022/04/01 11:39:14;;;;;;;5.88;4.32;;;4.70;68.30;;;;;;5087291;28;20028;-69
2022/04/01 11:41:54;;;;;;;5.57;4.35;;;4.80;68.40;;;;;;5090954;28;20028;-70
2022/04/01 11:44:21;;;;;;;6.25;4.30;;;4.70;68.50;;;;;;5084657;28;20036;-70
2022/04/01 11:46:55;;;;;;;6.63;5.22;;;4.70;68.70;;;;;;5094110;28;20123;-69
2022/04/01 11:49:26;;;;;;;6.13;4.60;;;4.70;68.10;;;;;;5084198;28;20121;-70
2022/04/01 11:51:51;;;;;;;6.10;4.47;;;4.80;68.50;;;;;;5078381;28;20024;-70
2022/04/01 11:54:19;;;;;;;5.65;4.40;;;4.80;67.80;;;;;;5078466;28;20115;-70
2022/04/01 11:56:45;;;;;;;7.70;4.35;;;4.90;67.80;;;;;;5080481;28;20464;-69
2022/04/01 11:59:10;;;;;;;4.57;3.55;;;5.00;67.90;;;;;;5083126;28;20383;-69
2022/04/01 12:01:58;;;;;;;6.50;4.70;;;5.10;68.00;;;;;;5082729;28;20115;-70
2022/04/01 12:04:33;;;;;;;6.13;4.30;;;5.10;67.80;;;;;;5084948;28;20032;-70
2022/04/01 12:10:16;;;;;;;5.88;4.72;;;5.10;68.00;;;;;;5084520;28;20086;-69
2022/04/01 12:13:05;;;;;;;5.78;4.80;;;5.10;67.90;;;;;;5090347;28;20025;-69
2022/04/01 12:15:42;;;;;;;8.65;5.07;;;5.10;67.70;;;;;;5081389;28;20039;-69
2022/04/01 12:18:16;;;;;;;6.18;4.80;;;5.10;67.80;;;;;;5085232;28;20063;-70
2022/04/01 12:20:44;;;;;;;5.57;4.35;;;5.10;67.60;;;;;;5082897;28;20031;-69
2022/04/01 12:23:09;;;;;;;5.60;4.50;;;5.20;67.40;;;;;;5079675;28;20534;-69
2022/04/01 12:25:37;;;;;;;4.72;4.05;;;5.30;67.30;;;;;;5082673;28;20068;-70
2022/04/01 12:28:08;;;;;;;5.63;4.38;;;5.40;67.00;;;;;;5079961;28;20027;-70
2022/04/01 12:30:43;;;;;;;6.32;4.80;;;5.40;66.50;;;;;;5081928;28;20054;-70
2022/04/01 12:33:16;;;;;;;7.53;5.53;;;5.40;66.00;;;;;;5077807;28;20046;-70
2022/04/01 12:36:02;;;;;;;6.78;4.53;;;5.40;65.80;;;;;;5083679;28;20527;-69
2022/04/01 12:38:37;;;;;;;6.70;4.80;;;5.30;66.20;;;;;;5080503;28;20027;-70
2022/04/01 12:41:12;;;;;;;6.68;4.53;;;5.20;66.00;;;;;;5077298;28;20135;-69
2022/04/01 12:43:39;;;;;;;7.03;4.97;;;5.10;65.70;;;;;;5083041;28;20029;-69
2022/04/01 12:46:05;;;;;;;7.05;4.82;;;5.00;66.10;;;;;;5082846;28;20140;-68
2022/04/01 12:48:40;;;;;;;6.95;4.72;;;5.00;65.70;;;;;;5083733;28;20052;-69
2022/04/01 12:51:05;;;;;;;6.60;4.80;;;5.00;65.80;;;;;;5091088;28;20117;-70
2022/04/01 12:53:31;;;;;;;6.20;4.50;;;5.10;65.80;;;;;;5096553;28;20429;-69
2022/04/01 12:56:19;;;;;;;7.55;4.60;;;5.30;65.80;;;;;;5075398;28;20025;-70
2022/04/01 12:58:49;;;;;;;6.72;4.82;;;5.30;65.20;;;;;;5090006;28;20024;-69
2022/04/01 13:01:25;;;;;;;7.00;4.28;;;5.50;65.00;;;;;;5090468;28;20020;-69
2022/04/01 13:03:51;;;;;;;5.82;4.47;;;5.60;64.60;;;;;;5101349;28;20489;-69
2022/04/01 13:06:17;;;;;;;6.18;4.53;;;5.80;64.30;;;;;;5090416;28;20025;-69
2022/04/01 13:08:43;;;;;;;6.68;4.53;;;5.90;63.90;;;;;;5078831;28;20020;-69
2022/04/01 13:11:11;;;;;;;6.15;4.65;;;5.90;63.20;;;;;;5081058;28;20052;-70
2022/04/01 13:13:37;;;;;;;5.55;4.28;;;5.90;62.00;;;;;;5076265;28;20074;-69
2022/04/01 13:16:02;;;;;;;6.30;4.22;;;6.00;62.30;;;;;;5082693;28;20032;-69
2022/04/01 13:18:32;;;;;;;7.07;4.28;;;6.00;62.20;;;;;;5090806;28;20032;-69
2022/04/01 13:20:58;;;;;;;7.70;4.80;;;6.00;62.00;;;;;;5090009;28;20026;-69
2022/04/01 13:23:25;;;;;;;6.65;4.22;;;5.80;61.10;;;;;;5088743;28;20169;-69